createdAt,value
2018-11-22T00:05:57.533Z,11.17
2018-11-22T00:08:46.248Z,11.20
2018-11-22T00:11:35.021Z,13.20
2018-11-22T00:14:23.993Z,12.80
2018-11-22T00:17:12.770Z,11.43
2018-11-22T00:20:01.612Z,11.53
2018-11-22T00:22:50.574Z,11.93
2018-11-22T00:25:39.761Z,13.43
2018-11-22T00:28:28.498Z,11.20
2018-11-22T00:31:17.312Z,11.13
2018-11-22T00:34:06.031Z,12.10
2018-11-22T00:36:54.796Z,11.93
2018-11-22T00:39:43.580Z,12.47
2018-11-22T00:42:32.391Z,11.90
2018-11-22T00:45:22.739Z,11.40
2018-11-22T00:48:11.672Z,12.17
2018-11-22T00:51:00.611Z,11.63
2018-11-22T00:53:49.332Z,11.60
2018-11-22T00:56:38.066Z,13.07
2018-11-22T00:59:26.896Z,11.50
2018-11-22T01:02:15.623Z,11.90
2018-11-22T01:05:04.781Z,11.93
2018-11-22T01:07:53.793Z,11.87
2018-11-22T01:10:42.985Z,11.53
2018-11-22T01:13:31.728Z,11.87
2018-11-22T01:16:21.664Z,12.37
2018-11-22T01:19:10.478Z,12.60
2018-11-22T01:21:59.299Z,11.57
2018-11-22T01:24:48.048Z,11.83
2018-11-22T01:27:36.907Z,11.40
2018-11-22T01:30:26.503Z,12.87
2018-11-22T01:33:15.609Z,13.30
2018-11-22T01:36:04.455Z,11.30
2018-11-22T01:38:53.311Z,12.50
2018-11-22T01:41:42.013Z,11.53
2018-11-22T01:44:30.759Z,12.60
2018-11-22T01:47:19.469Z,12.20
2018-11-22T01:50:09.137Z,13.53
2018-11-22T01:52:58.019Z,12.60
2018-11-22T01:55:46.788Z,13.40
2018-11-22T01:58:35.518Z,15.90
2018-11-22T02:01:24.433Z,14.20
2018-11-22T02:04:13.122Z,13.97
2018-11-22T02:07:02.051Z,13.50
2018-11-22T02:09:50.832Z,13.73
2018-11-22T02:12:39.723Z,13.67
2018-11-22T02:18:43.459Z,14.00
2018-11-22T02:24:40.341Z,13.60
2018-11-22T02:27:29.145Z,13.97
2018-11-22T02:30:19.589Z,13.70
2018-11-22T02:33:08.309Z,14.73
2018-11-22T02:35:57.113Z,14.27
2018-11-22T02:38:45.915Z,13.90
2018-11-22T02:41:34.708Z,15.37
2018-11-22T02:44:23.634Z,13.57
2018-11-22T02:47:12.400Z,14.90
2018-11-22T02:50:01.154Z,14.90
2018-11-22T02:52:50.526Z,15.47
2018-11-22T02:55:39.276Z,15.53
2018-11-22T03:01:42.268Z,14.90
2018-11-22T03:04:31.060Z,14.63
2018-11-22T03:07:19.845Z,14.57
2018-11-22T03:10:08.682Z,14.37
2018-11-22T03:12:57.840Z,13.80
2018-11-22T03:15:47.156Z,16.60
2018-11-22T03:21:31.413Z,15.60
2018-11-22T03:24:20.699Z,15.30
2018-11-22T03:27:09.500Z,14.93
2018-11-22T03:29:58.501Z,14.67
2018-11-22T03:32:47.537Z,15.00
2018-11-22T03:35:36.415Z,14.90
2018-11-22T03:38:25.189Z,15.37
2018-11-22T03:41:14.007Z,14.83
2018-11-22T03:44:02.824Z,15.93
2018-11-22T03:46:51.634Z,14.90
2018-11-22T03:49:40.792Z,14.93
2018-11-22T03:52:22.240Z,17.40
2018-11-22T03:55:03.849Z,17.37
2018-11-22T03:57:45.894Z,22.00
2018-11-22T04:00:29.300Z,27.37
2018-11-22T04:03:10.786Z,27.33
2018-11-22T04:05:52.411Z,26.57
2018-11-22T04:08:33.750Z,22.63
2018-11-22T04:11:15.065Z,19.10
2018-11-22T04:13:57.153Z,16.27
2018-11-22T04:16:38.862Z,16.80
2018-11-22T04:19:20.582Z,17.43
2018-11-22T04:22:01.856Z,17.70
2018-11-22T04:24:44.387Z,15.87
2018-11-22T04:27:26.303Z,17.33
2018-11-22T04:30:08.517Z,16.43
2018-11-22T04:32:57.309Z,16.10
2018-11-22T04:35:46.067Z,16.40
2018-11-22T04:41:49.635Z,15.93
2018-11-22T04:47:47.302Z,16.80
2018-11-22T04:50:37.659Z,14.70
2018-11-22T04:53:26.597Z,16.73
2018-11-22T04:56:15.389Z,16.40
2018-11-22T04:59:04.211Z,16.60
2018-11-22T05:01:53.003Z,16.67
2018-11-22T05:04:41.967Z,16.20
2018-11-22T05:07:30.705Z,17.03
2018-11-22T05:10:21.570Z,16.43
2018-11-22T05:13:10.453Z,15.60
2018-11-22T05:15:59.161Z,16.23
2018-11-22T05:18:48.005Z,15.47
2018-11-22T05:21:36.778Z,15.97
2018-11-22T05:27:39.900Z,15.77
2018-11-22T05:33:37.216Z,16.17
2018-11-22T05:36:26.028Z,15.93
2018-11-22T05:39:14.856Z,16.67
2018-11-22T05:42:03.627Z,17.20
2018-11-22T05:44:52.529Z,19.70
2018-11-22T05:47:41.640Z,15.90
2018-11-22T05:50:31.446Z,17.07
2018-11-22T05:53:20.372Z,16.27
2018-11-22T05:56:09.126Z,16.30
2018-11-22T05:58:57.869Z,18.80
2018-11-22T06:01:46.799Z,19.63
2018-11-22T06:04:35.681Z,20.00
2018-11-22T06:10:39.307Z,17.63
2018-11-22T06:13:28.034Z,15.87
2018-11-22T06:16:16.945Z,15.63
2018-11-22T06:19:05.713Z,16.20
2018-11-22T06:21:54.566Z,15.80
2018-11-22T06:24:43.751Z,16.47
2018-11-22T06:27:32.580Z,15.37
2018-11-22T06:30:22.649Z,16.20
2018-11-22T06:33:11.509Z,15.83
2018-11-22T06:36:00.377Z,15.60
2018-11-22T06:38:49.085Z,14.90
2018-11-22T06:41:37.868Z,13.87
2018-11-22T06:44:26.797Z,16.60
2018-11-22T06:47:15.820Z,17.70
2018-11-22T06:50:05.093Z,15.73
2018-11-22T06:56:08.640Z,16.07
2018-11-22T06:58:57.355Z,15.87
2018-11-22T07:01:46.161Z,17.03
2018-11-22T07:04:34.924Z,16.10
2018-11-22T07:07:23.676Z,16.30
2018-11-22T07:10:13.688Z,15.03
2018-11-22T07:13:02.800Z,17.77
2018-11-22T07:19:00.348Z,17.50
2018-11-22T07:21:49.109Z,16.70
2018-11-22T07:24:37.845Z,17.80
2018-11-22T07:30:42.475Z,18.40
2018-11-22T07:33:30.018Z,20.27
2018-11-22T07:36:18.747Z,20.00
2018-11-22T07:39:08.346Z,20.87
2018-11-22T07:41:57.287Z,19.70
2018-11-22T07:44:46.120Z,21.53
2018-11-22T07:47:34.926Z,20.77
2018-11-22T07:50:24.165Z,20.70
2018-11-22T07:53:12.938Z,21.57
2018-11-22T07:56:01.736Z,20.00
2018-11-22T08:05:20.443Z,19.17
2018-11-22T08:08:09.314Z,20.00
2018-11-22T08:10:58.333Z,20.90
2018-11-22T08:13:47.099Z,18.73
2018-11-22T08:16:36.029Z,21.93
2018-11-22T08:19:24.786Z,22.07
2018-11-22T08:22:13.527Z,22.13
2018-11-22T08:25:04.859Z,19.30
2018-11-22T08:27:51.610Z,21.00
2018-11-22T08:30:40.460Z,21.90
2018-11-22T08:33:29.213Z,22.50
2018-11-22T08:36:18.042Z,21.90
2018-11-22T08:39:08.060Z,21.90
2018-11-22T08:41:56.795Z,22.73
2018-11-22T08:44:45.575Z,22.20
2018-11-22T08:47:34.315Z,23.37
2018-11-22T08:53:37.107Z,20.60
2018-11-22T08:56:21.464Z,21.80
2018-11-22T08:59:10.327Z,22.93
2018-11-22T09:01:59.692Z,23.33
2018-11-22T09:04:48.584Z,21.13
2018-11-22T09:07:37.448Z,21.30
2018-11-22T09:10:27.108Z,22.10
2018-11-22T09:13:16.190Z,21.90
2018-11-22T09:16:04.960Z,22.03
2018-11-22T09:18:53.805Z,23.00
2018-11-22T09:21:42.559Z,22.63
2018-11-22T09:24:31.425Z,21.20
2018-11-22T09:27:20.173Z,21.20
2018-11-22T09:30:09.973Z,22.20
2018-11-22T09:32:58.971Z,23.03
2018-11-22T09:35:47.804Z,20.93
2018-11-22T09:38:37.006Z,23.03
2018-11-22T09:41:26.379Z,23.10
2018-11-22T09:44:15.234Z,21.97
2018-11-22T09:47:04.064Z,22.10
2018-11-22T09:49:52.814Z,23.37
2018-11-22T09:55:57.138Z,21.50
2018-11-22T09:58:45.830Z,21.07
2018-11-22T10:01:35.005Z,23.50
2018-11-22T10:04:23.820Z,21.53
2018-11-22T10:07:12.812Z,23.27
2018-11-22T10:10:01.855Z,22.07
2018-11-22T10:12:50.649Z,23.13
2018-11-22T10:15:40.171Z,23.20
2018-11-22T10:18:29.367Z,23.23
2018-11-22T10:21:18.143Z,23.50
2018-11-22T10:24:07.090Z,22.77
2018-11-22T10:26:55.778Z,22.30
2018-11-22T10:29:44.650Z,23.50
2018-11-22T10:32:33.382Z,22.03
2018-11-22T10:35:41.176Z,22.40
2018-11-22T10:38:30.092Z,22.60
2018-11-22T10:41:18.971Z,20.57
2018-11-22T10:44:07.858Z,22.90
2018-11-22T10:46:56.596Z,21.60
2018-11-22T10:49:51.271Z,21.97
2018-11-22T10:52:34.274Z,22.73
2018-11-22T10:55:24.283Z,22.20
2018-11-22T10:58:13.449Z,23.77
2018-11-22T11:01:21.255Z,24.63
2018-11-22T11:04:29.060Z,21.30
2018-11-22T11:07:36.885Z,22.60
2018-11-22T11:10:25.639Z,23.17
2018-11-22T11:13:14.440Z,23.37
2018-11-22T11:16:03.450Z,22.60
2018-11-22T11:18:52.139Z,22.30
2018-11-22T11:21:41.266Z,24.73
2018-11-22T11:24:30.464Z,22.30
2018-11-22T11:27:18.774Z,22.17
2018-11-22T11:30:08.980Z,23.13
2018-11-22T11:32:57.786Z,23.47
2018-11-22T11:35:46.557Z,24.17
2018-11-22T11:38:35.455Z,24.70
2018-11-22T11:44:38.206Z,24.43
2018-11-22T11:47:27.377Z,25.07
2018-11-22T11:50:35.177Z,22.00
2018-11-22T11:53:32.824Z,24.00
2018-11-22T11:56:12.849Z,22.50
2018-11-22T11:59:01.712Z,21.90
2018-11-22T12:01:50.781Z,22.57
2018-11-22T12:04:39.525Z,22.90
2018-11-22T12:07:28.446Z,23.40
2018-11-22T12:10:18.875Z,23.03
2018-11-22T12:13:07.816Z,22.70
2018-11-22T12:15:56.694Z,24.40
2018-11-22T12:18:45.713Z,26.33
2018-11-22T12:21:34.535Z,23.40
2018-11-22T12:24:23.400Z,23.97
2018-11-22T12:27:12.358Z,22.80
2018-11-22T12:30:01.289Z,23.20
2018-11-22T12:33:09.374Z,25.57
2018-11-22T12:36:17.217Z,24.03
2018-11-22T12:39:07.900Z,23.00
2018-11-22T12:41:56.733Z,23.00
2018-11-22T12:44:45.551Z,23.53
2018-11-22T12:47:34.366Z,25.10
2018-11-22T12:50:23.077Z,25.90
2018-11-22T12:53:11.898Z,24.77
2018-11-22T12:56:00.793Z,23.53
2018-11-22T12:58:49.623Z,23.80
2018-11-22T13:01:38.824Z,24.17
2018-11-22T13:04:27.635Z,25.27
2018-11-22T13:07:16.544Z,24.60
2018-11-22T13:10:06.387Z,23.47
2018-11-22T13:16:04.514Z,25.07
2018-11-22T13:18:55.649Z,24.43
2018-11-22T13:21:42.166Z,24.53
2018-11-22T13:24:31.397Z,24.40
2018-11-22T13:27:20.209Z,25.83
2018-11-22T13:30:10.553Z,24.33
2018-11-22T13:32:59.764Z,24.07
2018-11-22T13:35:48.533Z,24.13
2018-11-22T13:38:37.364Z,23.80
2018-11-22T13:41:26.205Z,23.97
2018-11-22T13:44:15.033Z,23.73
2018-11-22T13:47:03.822Z,24.80
2018-11-22T13:49:52.630Z,21.93
2018-11-22T13:52:41.362Z,24.30
2018-11-22T13:55:30.280Z,23.63
2018-11-22T13:58:18.958Z,24.00
2018-11-22T14:01:07.755Z,23.90
2018-11-22T14:03:56.473Z,24.03
2018-11-22T14:06:45.279Z,23.70
2018-11-22T14:12:43.208Z,22.97
2018-11-22T14:15:32.479Z,23.60
2018-11-22T14:18:21.222Z,25.50
2018-11-22T14:24:18.732Z,23.53
2018-11-22T14:27:07.480Z,26.43
2018-11-22T14:29:56.344Z,25.10
2018-11-22T14:32:45.732Z,24.60
2018-11-22T14:35:34.482Z,23.70
2018-11-22T14:38:23.693Z,22.83
2018-11-22T14:41:12.425Z,22.60
2018-11-22T14:44:01.234Z,22.93
2018-11-22T14:50:09.228Z,24.90
2018-11-22T14:52:59.485Z,25.07
2018-11-22T14:55:48.397Z,23.43
2018-11-22T14:58:37.232Z,25.03
2018-11-22T15:01:26.313Z,22.67
2018-11-22T15:04:15.222Z,23.90
2018-11-22T15:07:04.004Z,22.43
2018-11-22T15:09:52.739Z,24.80
2018-11-22T15:12:42.489Z,23.97
2018-11-22T15:15:31.577Z,23.73
2018-11-22T15:18:12.917Z,21.40
2018-11-22T15:21:00.901Z,24.03
2018-11-22T15:23:34.966Z,23.03
2018-11-22T15:26:23.824Z,22.67
2018-11-22T15:29:12.701Z,23.10
2018-11-22T15:32:01.838Z,25.70
2018-11-22T15:34:51.630Z,23.80
2018-11-22T15:37:40.704Z,22.10
2018-11-22T15:40:29.425Z,22.43
2018-11-22T15:43:19.160Z,23.40
2018-11-22T15:46:07.950Z,22.80
2018-11-22T15:48:56.765Z,21.33
2018-11-22T15:51:45.774Z,21.43
2018-11-22T15:54:34.590Z,22.00
2018-11-22T15:57:23.594Z,23.87
2018-11-22T16:00:32.891Z,23.00
2018-11-22T16:03:21.739Z,24.63
2018-11-22T16:06:11.031Z,24.07
2018-11-22T16:08:59.857Z,23.93
2018-11-22T16:11:48.705Z,23.13
2018-11-22T16:14:37.431Z,23.30
2018-11-22T16:17:26.302Z,23.90
2018-11-22T16:20:15.216Z,25.40
2018-11-22T16:23:04.058Z,26.30
2018-11-22T16:25:53.564Z,26.67
2018-11-22T16:31:51.952Z,26.33
2018-11-22T16:34:40.703Z,26.57
2018-11-22T16:37:29.952Z,25.63
2018-11-22T16:40:20.178Z,25.37
2018-11-22T16:43:28.956Z,28.37
2018-11-22T16:46:18.091Z,31.40
2018-11-22T16:49:06.970Z,31.57
2018-11-22T16:51:55.757Z,33.00
2018-11-22T16:54:44.491Z,33.47
2018-11-22T16:57:33.483Z,34.30
2018-11-22T17:00:41.756Z,33.70
2018-11-22T17:03:30.567Z,34.47
2018-11-22T17:06:19.690Z,35.07
2018-11-22T17:09:28.161Z,36.50
2018-11-22T17:12:16.957Z,35.23
2018-11-22T17:15:06.878Z,34.37
2018-11-22T17:17:56.188Z,32.90
2018-11-22T17:20:45.014Z,32.60
2018-11-22T17:23:33.774Z,28.97
2018-11-22T17:26:22.530Z,27.40
2018-11-22T17:29:11.280Z,30.40
2018-11-22T17:32:00.085Z,32.00
2018-11-22T17:34:48.898Z,34.10
2018-11-22T17:37:37.690Z,33.93
2018-11-22T17:40:45.496Z,36.20
2018-11-22T17:46:48.945Z,37.17
2018-11-22T17:49:37.715Z,40.07
2018-11-22T17:52:26.839Z,39.13
2018-11-22T17:58:31.939Z,36.20
2018-11-22T18:01:20.770Z,35.07
2018-11-22T18:04:09.562Z,36.40
2018-11-22T18:06:58.354Z,34.63
2018-11-22T18:09:47.172Z,33.33
2018-11-22T18:16:03.688Z,31.07
2018-11-22T18:18:52.482Z,29.90
2018-11-22T18:21:41.242Z,29.53
2018-11-22T18:24:30.180Z,31.10
2018-11-22T18:27:19.069Z,30.13
2018-11-22T18:30:08.907Z,28.63
2018-11-22T18:36:13.024Z,30.80
2018-11-22T18:39:01.761Z,29.40
2018-11-22T18:44:58.771Z,30.53
2018-11-22T18:47:47.732Z,30.50
2018-11-22T18:50:37.182Z,29.20
2018-11-22T18:53:25.914Z,28.77
2018-11-22T18:56:14.818Z,29.20
2018-11-22T18:59:03.646Z,27.50
2018-11-22T19:01:52.468Z,30.00
2018-11-22T19:04:41.275Z,29.30
2018-11-22T19:07:30.090Z,29.60
2018-11-22T19:10:37.957Z,30.90
2018-11-22T19:13:26.680Z,31.00
2018-11-22T19:16:15.541Z,30.17
2018-11-22T19:19:04.361Z,29.92
2018-11-22T19:21:53.280Z,30.30
2018-11-22T19:24:42.087Z,29.67
2018-11-22T19:27:30.878Z,28.33
2018-11-22T19:30:38.749Z,27.50
2018-11-22T19:33:27.534Z,27.50
2018-11-22T19:36:16.282Z,26.83
2018-11-22T19:39:05.856Z,26.20
2018-11-22T19:41:54.628Z,26.33
2018-11-22T19:44:43.615Z,25.77
2018-11-22T19:50:46.315Z,27.17
2018-11-22T19:53:35.235Z,24.53
2018-11-22T19:56:24.037Z,25.10
2018-11-22T19:59:12.835Z,25.80
2018-11-22T20:02:01.817Z,26.57
2018-11-22T20:04:50.562Z,27.98
2018-11-22T20:07:39.597Z,26.40
2018-11-22T20:13:43.620Z,26.93
2018-11-22T20:16:32.471Z,25.63
2018-11-22T20:19:21.247Z,27.10
2018-11-22T20:22:09.976Z,26.90
2018-11-22T20:24:58.790Z,24.83
2018-11-22T20:27:47.774Z,24.82
2018-11-22T20:30:55.961Z,26.48
2018-11-22T20:33:44.675Z,25.10
2018-11-22T20:36:33.658Z,24.87
2018-11-22T20:39:23.244Z,24.87
2018-11-22T20:45:28.161Z,23.97
2018-11-22T20:48:16.930Z,25.43
2018-11-22T20:51:05.978Z,23.17
2018-11-22T20:53:54.804Z,23.90
2018-11-22T20:56:44.068Z,25.43
2018-11-22T20:59:32.929Z,25.90
2018-11-22T21:02:21.667Z,29.00
2018-11-22T21:05:11.958Z,29.43
2018-11-22T21:08:00.844Z,30.97
2018-11-22T21:10:49.654Z,30.73
2018-11-22T21:13:39.006Z,28.00
2018-11-22T21:16:27.770Z,28.70
2018-11-22T21:19:16.516Z,27.50
2018-11-22T21:25:14.842Z,27.17
2018-11-22T21:28:03.598Z,27.67
2018-11-22T21:30:52.317Z,27.90
2018-11-22T21:33:41.628Z,26.23
2018-11-22T21:36:30.480Z,28.10
2018-11-22T21:39:19.237Z,28.83
2018-11-22T21:42:08.010Z,29.67
2018-11-22T21:44:57.018Z,27.37
2018-11-22T21:47:45.809Z,27.80
2018-11-22T21:50:34.715Z,27.17
2018-11-22T21:53:23.544Z,26.70
2018-11-22T21:56:12.247Z,27.17
2018-11-22T21:59:01.052Z,25.87
2018-11-22T22:01:49.908Z,26.27
2018-11-22T22:04:39.044Z,27.17
2018-11-22T22:07:28.632Z,24.60
2018-11-22T22:10:17.403Z,27.33
2018-11-22T22:13:06.121Z,25.17
2018-11-22T22:15:54.931Z,24.83
2018-11-22T22:18:43.959Z,24.97
2018-11-22T22:21:33.263Z,22.70
2018-11-22T22:27:37.866Z,24.20
2018-11-22T22:30:31.240Z,20.73
2018-11-22T22:33:20.049Z,24.40
2018-11-22T22:36:08.742Z,23.60
2018-11-22T22:42:12.554Z,22.55
2018-11-22T22:45:01.438Z,22.47
2018-11-22T22:47:50.725Z,21.93
2018-11-22T22:50:39.527Z,23.60
2018-11-22T22:53:28.330Z,20.40
2018-11-22T22:56:17.133Z,21.70
2018-11-22T22:59:06.130Z,22.20
2018-11-22T23:05:03.327Z,23.30
2018-11-22T23:07:52.137Z,22.13
2018-11-22T23:10:40.934Z,23.20
2018-11-22T23:13:29.911Z,22.83
2018-11-22T23:19:34.062Z,21.00
2018-11-22T23:22:22.824Z,21.10
2018-11-22T23:28:20.600Z,22.20
2018-11-22T23:31:09.366Z,19.83
2018-11-22T23:33:58.129Z,19.83
2018-11-22T23:36:46.955Z,23.30
2018-11-22T23:39:35.820Z,20.73
2018-11-22T23:42:24.681Z,19.40
2018-11-22T23:48:28.684Z,20.87
2018-11-22T23:57:42.000Z,19.77
